sensor_id;sensor_type;location;lat;lon;timestamp;temperature;humidity
19888;DHT22;10106;51.332;12.336;2022-12-11T00:01:26;-1.60;99.90
19888;DHT22;10106;51.332;12.336;2022-12-11T00:03:52;-1.60;99.90
19888;DHT22;10106;51.332;12.336;2022-12-11T00:06:21;-1.60;99.90
19888;DHT22;10106;51.332;12.336;2022-12-11T00:08:50;-1.50;99.90
19888;DHT22;10106;51.332;12.336;2022-12-11T00:11:16;-1.60;99.90
19888;DHT22;10106;51.332;12.336;2022-12-11T00:13:42;-1.60;99.90
19888;DHT22;10106;51.332;12.336;2022-12-11T00:16:08;-1.60;99.90
19888;DHT22;10106;51.332;12.336;2022-12-11T00:18:35;-1.60;99.90
19888;DHT22;10106;51.332;12.336;2022-12-11T00:21:05;-1.60;99.90
19888;DHT22;10106;51.332;12.336;2022-12-11T00:23:33;-1.60;99.90
19888;DHT22;10106;51.332;12.336;2022-12-11T00:25:59;-1.60;99.90
19888;DHT22;10106;51.332;12.336;2022-12-11T00:28:25;-1.70;99.90
19888;DHT22;10106;51.332;12.336;2022-12-11T00:30:51;-1.70;99.90
19888;DHT22;10106;51.332;12.336;2022-12-11T00:33:17;-1.70;99.90
19888;DHT22;10106;51.332;12.336;2022-12-11T00:35:46;-1.60;99.90
19888;DHT22;10106;51.332;12.336;2022-12-11T00:38:14;-1.60;99.90
19888;DHT22;10106;51.332;12.336;2022-12-11T00:40:40;-1.70;99.90
19888;DHT22;10106;51.332;12.336;2022-12-11T00:43:06;-1.70;99.90
19888;DHT22;10106;51.332;12.336;2022-12-11T00:45:35;-1.70;99.90
19888;DHT22;10106;51.332;12.336;2022-12-11T00:48:01;-1.60;99.90
19888;DHT22;10106;51.332;12.336;2022-12-11T00:50:27;-1.60;99.90
19888;DHT22;10106;51.332;12.336;2022-12-11T00:52:53;-1.60;99.90
19888;DHT22;10106;51.332;12.336;2022-12-11T00:55:18;-1.60;99.90
19888;DHT22;10106;51.332;12.336;2022-12-11T00:57:44;-1.70;99.90
19888;DHT22;10106;51.332;12.336;2022-12-11T01:00:10;-1.70;99.90
19888;DHT22;10106;51.332;12.336;2022-12-11T01:02:37;-1.70;99.90
19888;DHT22;10106;51.332;12.336;2022-12-11T01:05:03;-1.80;99.90
19888;DHT22;10106;51.332;12.336;2022-12-11T01:07:28;-1.80;99.90
19888;DHT22;10106;51.332;12.336;2022-12-11T01:09:54;-1.90;99.90
19888;DHT22;10106;51.332;12.336;2022-12-11T01:12:38;-1.90;99.90
19888;DHT22;10106;51.332;12.336;2022-12-11T01:15:04;-1.80;99.90
19888;DHT22;10106;51.332;12.336;2022-12-11T01:17:30;-1.80;99.90
19888;DHT22;10106;51.332;12.336;2022-12-11T01:19:56;-1.80;99.90
19888;DHT22;10106;51.332;12.336;2022-12-11T01:22:22;-1.80;99.90
19888;DHT22;10106;51.332;12.336;2022-12-11T01:24:50;-1.80;99.90
19888;DHT22;10106;51.332;12.336;2022-12-11T01:27:16;-1.80;99.90
19888;DHT22;10106;51.332;12.336;2022-12-11T01:29:41;-1.80;99.90
19888;DHT22;10106;51.332;12.336;2022-12-11T01:32:07;-1.80;99.90
19888;DHT22;10106;51.332;12.336;2022-12-11T01:34:32;-1.80;99.90
19888;DHT22;10106;51.332;12.336;2022-12-11T01:36:58;-1.70;99.90
19888;DHT22;10106;51.332;12.336;2022-12-11T01:39:24;-1.80;99.90
19888;DHT22;10106;51.332;12.336;2022-12-11T01:41:49;-1.80;99.90
19888;DHT22;10106;51.332;12.336;2022-12-11T01:46:41;-1.80;99.90
19888;DHT22;10106;51.332;12.336;2022-12-11T01:49:12;-1.80;99.90
19888;DHT22;10106;51.332;12.336;2022-12-11T01:51:50;-1.80;99.90
19888;DHT22;10106;51.332;12.336;2022-12-11T01:54:20;-1.70;99.90
19888;DHT22;10106;51.332;12.336;2022-12-11T01:56:47;-1.70;99.90
19888;DHT22;10106;51.332;12.336;2022-12-11T01:59:17;-1.70;99.90
19888;DHT22;10106;51.332;12.336;2022-12-11T02:02:11;-1.80;99.90
19888;DHT22;10106;51.332;12.336;2022-12-11T02:04:39;-1.80;99.90
19888;DHT22;10106;51.332;12.336;2022-12-11T02:07:06;-1.80;99.90
19888;DHT22;10106;51.332;12.336;2022-12-11T02:09:34;-1.80;99.90
19888;DHT22;10106;51.332;12.336;2022-12-11T02:22:56;-1.70;99.90
19888;DHT22;10106;51.332;12.336;2022-12-11T02:31:16;-1.80;99.90
19888;DHT22;10106;51.332;12.336;2022-12-11T02:36:12;-1.90;99.90
19888;DHT22;10106;51.332;12.336;2022-12-11T02:38:42;-1.80;99.90
19888;DHT22;10106;51.332;12.336;2022-12-11T02:41:16;-1.90;99.90
19888;DHT22;10106;51.332;12.336;2022-12-11T02:43:43;-1.90;99.90
19888;DHT22;10106;51.332;12.336;2022-12-11T02:46:10;-1.90;99.90
19888;DHT22;10106;51.332;12.336;2022-12-11T02:48:38;-1.90;99.90
19888;DHT22;10106;51.332;12.336;2022-12-11T02:51:05;-1.90;99.90
19888;DHT22;10106;51.332;12.336;2022-12-11T02:53:36;-2.00;99.90
19888;DHT22;10106;51.332;12.336;2022-12-11T02:56:12;-2.00;99.90
19888;DHT22;10106;51.332;12.336;2022-12-11T02:58:44;-2.00;99.90
19888;DHT22;10106;51.332;12.336;2022-12-11T03:01:11;-2.00;99.90
19888;DHT22;10106;51.332;12.336;2022-12-11T03:03:37;-1.90;99.90
19888;DHT22;10106;51.332;12.336;2022-12-11T03:06:03;-2.00;99.90
19888;DHT22;10106;51.332;12.336;2022-12-11T03:08:28;-2.00;99.90
19888;DHT22;10106;51.332;12.336;2022-12-11T03:10:54;-2.00;99.90
19888;DHT22;10106;51.332;12.336;2022-12-11T03:13:21;-1.90;99.90
19888;DHT22;10106;51.332;12.336;2022-12-11T03:18:31;-1.90;99.90
19888;DHT22;10106;51.332;12.336;2022-12-11T03:21:18;-2.00;99.90
19888;DHT22;10106;51.332;12.336;2022-12-11T03:24:09;-2.00;99.90
19888;DHT22;10106;51.332;12.336;2022-12-11T03:26:41;-2.00;99.90
19888;DHT22;10106;51.332;12.336;2022-12-11T03:29:47;-2.00;99.90
19888;DHT22;10106;51.332;12.336;2022-12-11T03:32:19;-2.00;99.90
19888;DHT22;10106;51.332;12.336;2022-12-11T03:34:55;-2.00;99.90
19888;DHT22;10106;51.332;12.336;2022-12-11T03:37:23;-2.00;99.90
19888;DHT22;10106;51.332;12.336;2022-12-11T03:39:52;-2.00;99.90
19888;DHT22;10106;51.332;12.336;2022-12-11T03:42:20;-2.00;99.90
19888;DHT22;10106;51.332;12.336;2022-12-11T03:44:48;-2.00;99.90
19888;DHT22;10106;51.332;12.336;2022-12-11T03:47:18;-2.00;99.90
19888;DHT22;10106;51.332;12.336;2022-12-11T03:49:47;-2.00;99.90
19888;DHT22;10106;51.332;12.336;2022-12-11T03:52:14;-2.00;99.90
19888;DHT22;10106;51.332;12.336;2022-12-11T03:54:42;-2.10;99.90
19888;DHT22;10106;51.332;12.336;2022-12-11T03:57:12;-2.10;99.90
19888;DHT22;10106;51.332;12.336;2022-12-11T03:59:39;-2.10;99.90
19888;DHT22;10106;51.332;12.336;2022-12-11T04:02:05;-2.10;99.90
19888;DHT22;10106;51.332;12.336;2022-12-11T04:04:40;-2.10;99.90
19888;DHT22;10106;51.332;12.336;2022-12-11T04:07:06;-2.10;99.90
19888;DHT22;10106;51.332;12.336;2022-12-11T04:09:33;-2.10;99.90
19888;DHT22;10106;51.332;12.336;2022-12-11T04:11:58;-2.10;99.90
19888;DHT22;10106;51.332;12.336;2022-12-11T04:14:25;-2.10;99.90
19888;DHT22;10106;51.332;12.336;2022-12-11T04:17:10;-2.10;99.90
19888;DHT22;10106;51.332;12.336;2022-12-11T04:19:36;-2.10;99.90
19888;DHT22;10106;51.332;12.336;2022-12-11T04:22:20;-2.10;99.90
19888;DHT22;10106;51.332;12.336;2022-12-11T04:25:06;-2.10;99.90
19888;DHT22;10106;51.332;12.336;2022-12-11T04:27:32;-2.10;99.90
19888;DHT22;10106;51.332;12.336;2022-12-11T04:30:24;-2.10;99.90
19888;DHT22;10106;51.332;12.336;2022-12-11T04:32:52;-2.10;99.90
19888;DHT22;10106;51.332;12.336;2022-12-11T04:35:19;-2.20;99.90
19888;DHT22;10106;51.332;12.336;2022-12-11T04:37:45;-2.20;99.90
19888;DHT22;10106;51.332;12.336;2022-12-11T04:40:15;-2.30;99.90
19888;DHT22;10106;51.332;12.336;2022-12-11T04:42:41;-2.20;99.90
19888;DHT22;10106;51.332;12.336;2022-12-11T04:45:07;-2.20;99.90
19888;DHT22;10106;51.332;12.336;2022-12-11T04:47:34;-2.20;99.90
19888;DHT22;10106;51.332;12.336;2022-12-11T04:50:00;-2.20;99.90
19888;DHT22;10106;51.332;12.336;2022-12-11T04:52:26;-2.20;99.90
19888;DHT22;10106;51.332;12.336;2022-12-11T04:54:52;-2.20;99.90
19888;DHT22;10106;51.332;12.336;2022-12-11T04:57:17;-2.30;99.90
19888;DHT22;10106;51.332;12.336;2022-12-11T04:59:45;-2.30;99.90
19888;DHT22;10106;51.332;12.336;2022-12-11T05:02:10;-2.30;99.90
19888;DHT22;10106;51.332;12.336;2022-12-11T05:04:36;-2.30;99.90
19888;DHT22;10106;51.332;12.336;2022-12-11T05:07:02;-2.30;99.90
19888;DHT22;10106;51.332;12.336;2022-12-11T05:09:27;-2.30;99.90
19888;DHT22;10106;51.332;12.336;2022-12-11T05:11:55;-2.30;99.90
19888;DHT22;10106;51.332;12.336;2022-12-11T05:14:20;-2.20;99.90
19888;DHT22;10106;51.332;12.336;2022-12-11T05:16:46;-2.30;99.90
19888;DHT22;10106;51.332;12.336;2022-12-11T05:19:12;-2.30;99.90
19888;DHT22;10106;51.332;12.336;2022-12-11T05:21:38;-2.30;99.90
19888;DHT22;10106;51.332;12.336;2022-12-11T05:24:04;-2.40;99.90
19888;DHT22;10106;51.332;12.336;2022-12-11T05:26:29;-2.40;99.90
19888;DHT22;10106;51.332;12.336;2022-12-11T05:28:55;-2.40;99.90
19888;DHT22;10106;51.332;12.336;2022-12-11T05:31:24;-2.40;99.90
19888;DHT22;10106;51.332;12.336;2022-12-11T05:33:50;-2.30;99.90
19888;DHT22;10106;51.332;12.336;2022-12-11T05:36:28;-2.40;99.90
19888;DHT22;10106;51.332;12.336;2022-12-11T05:38:54;-2.30;99.90
19888;DHT22;10106;51.332;12.336;2022-12-11T05:41:23;-2.40;99.90
19888;DHT22;10106;51.332;12.336;2022-12-11T05:43:49;-2.40;99.90
19888;DHT22;10106;51.332;12.336;2022-12-11T05:46:20;-2.40;99.90
19888;DHT22;10106;51.332;12.336;2022-12-11T05:48:49;-2.40;99.90
19888;DHT22;10106;51.332;12.336;2022-12-11T05:51:15;-2.40;99.90
19888;DHT22;10106;51.332;12.336;2022-12-11T05:53:42;-2.40;99.90
19888;DHT22;10106;51.332;12.336;2022-12-11T05:56:14;-2.40;99.90
19888;DHT22;10106;51.332;12.336;2022-12-11T05:58:40;-2.40;99.90
19888;DHT22;10106;51.332;12.336;2022-12-11T06:06:17;-2.40;99.90
19888;DHT22;10106;51.332;12.336;2022-12-11T06:08:43;-2.40;99.90
19888;DHT22;10106;51.332;12.336;2022-12-11T06:11:10;-2.40;99.90
19888;DHT22;10106;51.332;12.336;2022-12-11T06:13:36;-2.40;99.90
19888;DHT22;10106;51.332;12.336;2022-12-11T06:16:04;-2.40;99.90
19888;DHT22;10106;51.332;12.336;2022-12-11T06:18:30;-2.40;99.90
19888;DHT22;10106;51.332;12.336;2022-12-11T06:20:55;-2.40;99.90
19888;DHT22;10106;51.332;12.336;2022-12-11T06:23:21;-2.40;99.90
19888;DHT22;10106;51.332;12.336;2022-12-11T06:25:47;-2.40;99.90
19888;DHT22;10106;51.332;12.336;2022-12-11T06:28:13;-2.40;99.90
19888;DHT22;10106;51.332;12.336;2022-12-11T06:30:39;-2.40;99.90
19888;DHT22;10106;51.332;12.336;2022-12-11T06:33:27;-2.40;99.90
19888;DHT22;10106;51.332;12.336;2022-12-11T06:35:53;-2.40;99.90
19888;DHT22;10106;51.332;12.336;2022-12-11T06:38:18;-2.40;99.90
19888;DHT22;10106;51.332;12.336;2022-12-11T06:40:44;-2.30;99.90
19888;DHT22;10106;51.332;12.336;2022-12-11T06:43:10;-2.30;99.90
19888;DHT22;10106;51.332;12.336;2022-12-11T06:45:36;-2.40;99.90
19888;DHT22;10106;51.332;12.336;2022-12-11T06:48:02;-2.40;99.90
19888;DHT22;10106;51.332;12.336;2022-12-11T06:50:28;-2.40;99.90
19888;DHT22;10106;51.332;12.336;2022-12-11T06:52:55;-2.40;99.90
19888;DHT22;10106;51.332;12.336;2022-12-11T06:55:21;-2.40;99.90
19888;DHT22;10106;51.332;12.336;2022-12-11T06:57:47;-2.30;99.90
19888;DHT22;10106;51.332;12.336;2022-12-11T07:00:14;-2.30;99.90
19888;DHT22;10106;51.332;12.336;2022-12-11T07:02:48;-2.40;99.90
19888;DHT22;10106;51.332;12.336;2022-12-11T07:05:27;-2.40;99.90
19888;DHT22;10106;51.332;12.336;2022-12-11T07:07:55;-2.40;99.90
19888;DHT22;10106;51.332;12.336;2022-12-11T07:10:31;-2.40;99.90
19888;DHT22;10106;51.332;12.336;2022-12-11T07:12:57;-2.40;99.90
19888;DHT22;10106;51.332;12.336;2022-12-11T07:15:29;-2.30;99.90
19888;DHT22;10106;51.332;12.336;2022-12-11T07:18:00;-2.30;99.90
19888;DHT22;10106;51.332;12.336;2022-12-11T07:20:29;-2.20;99.90
19888;DHT22;10106;51.332;12.336;2022-12-11T07:22:54;-2.20;99.90
19888;DHT22;10106;51.332;12.336;2022-12-11T07:25:20;-2.20;99.90
19888;DHT22;10106;51.332;12.336;2022-12-11T07:27:46;-2.20;99.90
19888;DHT22;10106;51.332;12.336;2022-12-11T07:30:12;-2.20;99.90
19888;DHT22;10106;51.332;12.336;2022-12-11T07:32:38;-2.30;99.90
19888;DHT22;10106;51.332;12.336;2022-12-11T07:35:04;-2.20;99.90
19888;DHT22;10106;51.332;12.336;2022-12-11T07:37:33;-2.20;99.90
19888;DHT22;10106;51.332;12.336;2022-12-11T07:39:59;-2.20;99.90
19888;DHT22;10106;51.332;12.336;2022-12-11T07:42:24;-2.20;99.90
19888;DHT22;10106;51.332;12.336;2022-12-11T07:44:50;-2.10;99.90
19888;DHT22;10106;51.332;12.336;2022-12-11T07:47:16;-2.10;99.90
19888;DHT22;10106;51.332;12.336;2022-12-11T07:49:42;-2.10;99.90
19888;DHT22;10106;51.332;12.336;2022-12-11T07:52:08;-2.10;99.90
19888;DHT22;10106;51.332;12.336;2022-12-11T07:54:43;-2.10;99.90
19888;DHT22;10106;51.332;12.336;2022-12-11T07:57:09;-2.10;99.90
19888;DHT22;10106;51.332;12.336;2022-12-11T07:59:34;-2.00;99.90
19888;DHT22;10106;51.332;12.336;2022-12-11T08:02:00;-2.00;99.90
19888;DHT22;10106;51.332;12.336;2022-12-11T08:04:26;-2.00;99.90
19888;DHT22;10106;51.332;12.336;2022-12-11T08:07:00;-1.90;99.90
19888;DHT22;10106;51.332;12.336;2022-12-11T08:09:29;-1.90;99.90
19888;DHT22;10106;51.332;12.336;2022-12-11T08:11:55;-1.80;99.90
19888;DHT22;10106;51.332;12.336;2022-12-11T08:14:33;-1.70;99.90
19888;DHT22;10106;51.332;12.336;2022-12-11T08:16:58;-1.70;99.90
19888;DHT22;10106;51.332;12.336;2022-12-11T08:19:24;-1.60;99.90
19888;DHT22;10106;51.332;12.336;2022-12-11T08:21:50;-1.60;99.90
19888;DHT22;10106;51.332;12.336;2022-12-11T08:24:16;-1.50;99.90
19888;DHT22;10106;51.332;12.336;2022-12-11T08:26:45;-1.50;99.90
19888;DHT22;10106;51.332;12.336;2022-12-11T08:29:15;-1.50;99.90
19888;DHT22;10106;51.332;12.336;2022-12-11T08:31:43;-1.50;99.90
19888;DHT22;10106;51.332;12.336;2022-12-11T08:34:09;-1.50;99.90
19888;DHT22;10106;51.332;12.336;2022-12-11T08:36:38;-1.50;99.90
19888;DHT22;10106;51.332;12.336;2022-12-11T08:39:05;-1.40;99.90
19888;DHT22;10106;51.332;12.336;2022-12-11T08:41:30;-1.40;99.90
19888;DHT22;10106;51.332;12.336;2022-12-11T08:43:57;-1.30;99.90
19888;DHT22;10106;51.332;12.336;2022-12-11T08:46:35;-1.40;99.90
19888;DHT22;10106;51.332;12.336;2022-12-11T08:49:03;-1.30;99.90
19888;DHT22;10106;51.332;12.336;2022-12-11T08:51:29;-1.30;99.90
19888;DHT22;10106;51.332;12.336;2022-12-11T08:53:56;-1.30;99.90
19888;DHT22;10106;51.332;12.336;2022-12-11T08:56:23;-1.20;99.90
19888;DHT22;10106;51.332;12.336;2022-12-11T08:58:49;-1.20;99.90
19888;DHT22;10106;51.332;12.336;2022-12-11T09:01:21;-1.20;99.90
19888;DHT22;10106;51.332;12.336;2022-12-11T09:03:50;-1.20;99.90
19888;DHT22;10106;51.332;12.336;2022-12-11T09:06:18;-1.20;99.90
19888;DHT22;10106;51.332;12.336;2022-12-11T09:08:46;-1.20;99.90
19888;DHT22;10106;51.332;12.336;2022-12-11T09:11:18;-1.20;99.90
19888;DHT22;10106;51.332;12.336;2022-12-11T09:13:44;-1.10;99.90
19888;DHT22;10106;51.332;12.336;2022-12-11T09:16:13;-1.10;99.90
19888;DHT22;10106;51.332;12.336;2022-12-11T09:18:39;-1.00;99.90
19888;DHT22;10106;51.332;12.336;2022-12-11T09:21:11;-0.90;99.90
19888;DHT22;10106;51.332;12.336;2022-12-11T09:23:38;-0.80;99.90
19888;DHT22;10106;51.332;12.336;2022-12-11T09:26:06;-0.70;99.90
19888;DHT22;10106;51.332;12.336;2022-12-11T09:28:32;-0.60;99.90
19888;DHT22;10106;51.332;12.336;2022-12-11T09:30:58;-0.50;99.90
19888;DHT22;10106;51.332;12.336;2022-12-11T09:33:24;-0.40;99.90
19888;DHT22;10106;51.332;12.336;2022-12-11T09:36:00;-0.40;99.90
19888;DHT22;10106;51.332;12.336;2022-12-11T09:38:29;-0.40;99.90
19888;DHT22;10106;51.332;12.336;2022-12-11T09:40:56;-0.40;99.90
19888;DHT22;10106;51.332;12.336;2022-12-11T09:43:45;-0.40;99.90
19888;DHT22;10106;51.332;12.336;2022-12-11T09:46:16;-0.30;99.90
19888;DHT22;10106;51.332;12.336;2022-12-11T09:48:47;-0.30;99.90
19888;DHT22;10106;51.332;12.336;2022-12-11T09:51:39;-0.30;99.90
19888;DHT22;10106;51.332;12.336;2022-12-11T09:54:12;-0.20;99.90
19888;DHT22;10106;51.332;12.336;2022-12-11T09:56:44;-0.20;99.90
19888;DHT22;10106;51.332;12.336;2022-12-11T10:07:20;-0.40;99.90
19888;DHT22;10106;51.332;12.336;2022-12-11T10:12:59;-0.60;99.90
19888;DHT22;10106;51.332;12.336;2022-12-11T10:28:27;-0.90;99.90
19888;DHT22;10106;51.332;12.336;2022-12-11T10:33:46;-1.10;99.90
19888;DHT22;10106;51.332;12.336;2022-12-11T10:36:23;-1.30;99.90
19888;DHT22;10106;51.332;12.336;2022-12-11T10:38:57;-1.40;99.90
19888;DHT22;10106;51.332;12.336;2022-12-11T10:43:55;-1.30;99.90
19888;DHT22;10106;51.332;12.336;2022-12-11T10:46:25;-1.20;99.90
19888;DHT22;10106;51.332;12.336;2022-12-11T10:48:57;-1.10;99.90
19888;DHT22;10106;51.332;12.336;2022-12-11T10:51:33;-0.90;99.90
19888;DHT22;10106;51.332;12.336;2022-12-11T10:54:32;-0.70;99.90
19888;DHT22;10106;51.332;12.336;2022-12-11T10:57:06;-0.80;99.90
19888;DHT22;10106;51.332;12.336;2022-12-11T11:02:30;-0.50;99.90
19888;DHT22;10106;51.332;12.336;2022-12-11T11:04:59;-0.40;99.90
19888;DHT22;10106;51.332;12.336;2022-12-11T11:07:29;-0.20;99.90
19888;DHT22;10106;51.332;12.336;2022-12-11T11:15:10;-0.40;99.90
19888;DHT22;10106;51.332;12.336;2022-12-11T11:20:18;-0.50;99.90
19888;DHT22;10106;51.332;12.336;2022-12-11T11:22:58;-0.60;99.90
19888;DHT22;10106;51.332;12.336;2022-12-11T11:25:29;-0.50;99.90
19888;DHT22;10106;51.332;12.336;2022-12-11T11:28:35;-0.30;99.90
19888;DHT22;10106;51.332;12.336;2022-12-11T11:31:07;-0.30;99.90
19888;DHT22;10106;51.332;12.336;2022-12-11T11:33:35;-0.30;99.90
19888;DHT22;10106;51.332;12.336;2022-12-11T11:36:06;-0.30;99.90
19888;DHT22;10106;51.332;12.336;2022-12-11T11:44:26;-0.20;99.90
19888;DHT22;10106;51.332;12.336;2022-12-11T11:47:09;-0.10;99.90
19888;DHT22;10106;51.332;12.336;2022-12-11T11:49:54;-0.10;99.90
19888;DHT22;10106;51.332;12.336;2022-12-11T11:52:42;-0.10;99.90
19888;DHT22;10106;51.332;12.336;2022-12-11T11:55:45;0.00;99.90
19888;DHT22;10106;51.332;12.336;2022-12-11T11:58:17;-0.10;99.90
19888;DHT22;10106;51.332;12.336;2022-12-11T12:00:47;-0.10;99.90
19888;DHT22;10106;51.332;12.336;2022-12-11T12:03:16;-0.10;99.90
19888;DHT22;10106;51.332;12.336;2022-12-11T12:11:45;-0.30;99.90
19888;DHT22;10106;51.332;12.336;2022-12-11T12:14:29;-0.30;99.90
19888;DHT22;10106;51.332;12.336;2022-12-11T12:25:33;-0.10;99.90
19888;DHT22;10106;51.332;12.336;2022-12-11T12:33:40;-0.30;99.90
19888;DHT22;10106;51.332;12.336;2022-12-11T12:46:42;-0.70;99.90
19888;DHT22;10106;51.332;12.336;2022-12-11T12:49:12;-0.60;99.90
19888;DHT22;10106;51.332;12.336;2022-12-11T12:51:39;-0.70;99.90
19888;DHT22;10106;51.332;12.336;2022-12-11T12:54:06;-0.80;99.90
19888;DHT22;10106;51.332;12.336;2022-12-11T12:56:33;-0.80;99.90
19888;DHT22;10106;51.332;12.336;2022-12-11T12:59:01;-0.80;99.90
19888;DHT22;10106;51.332;12.336;2022-12-11T13:01:27;-0.70;99.90
19888;DHT22;10106;51.332;12.336;2022-12-11T13:04:06;-0.70;99.90
19888;DHT22;10106;51.332;12.336;2022-12-11T13:06:36;-0.70;99.90
19888;DHT22;10106;51.332;12.336;2022-12-11T13:09:18;-0.80;99.90
19888;DHT22;10106;51.332;12.336;2022-12-11T13:11:47;-0.80;99.90
19888;DHT22;10106;51.332;12.336;2022-12-11T13:16:45;-0.90;99.90
19888;DHT22;10106;51.332;12.336;2022-12-11T13:24:32;-0.90;99.90
19888;DHT22;10106;51.332;12.336;2022-12-11T13:27:22;-0.90;99.90
19888;DHT22;10106;51.332;12.336;2022-12-11T13:29:48;-0.90;99.90
19888;DHT22;10106;51.332;12.336;2022-12-11T13:34:55;-0.90;99.90
19888;DHT22;10106;51.332;12.336;2022-12-11T13:40:02;-1.20;99.90
19888;DHT22;10106;51.332;12.336;2022-12-11T13:47:50;-1.30;99.90
19888;DHT22;10106;51.332;12.336;2022-12-11T13:50:28;-1.30;99.90
19888;DHT22;10106;51.332;12.336;2022-12-11T13:52:56;-1.40;99.90
19888;DHT22;10106;51.332;12.336;2022-12-11T13:55:25;-1.50;99.90
19888;DHT22;10106;51.332;12.336;2022-12-11T13:57:51;-1.50;99.90
19888;DHT22;10106;51.332;12.336;2022-12-11T14:00:22;-1.50;99.90
19888;DHT22;10106;51.332;12.336;2022-12-11T14:02:49;-1.50;99.90
19888;DHT22;10106;51.332;12.336;2022-12-11T14:05:16;-1.50;99.90
19888;DHT22;10106;51.332;12.336;2022-12-11T14:07:48;-1.60;99.90
19888;DHT22;10106;51.332;12.336;2022-12-11T14:12:52;-1.60;99.90
19888;DHT22;10106;51.332;12.336;2022-12-11T14:15:22;-1.60;99.90
19888;DHT22;10106;51.332;12.336;2022-12-11T14:17:48;-1.60;99.90
19888;DHT22;10106;51.332;12.336;2022-12-11T14:20:20;-1.70;99.90
19888;DHT22;10106;51.332;12.336;2022-12-11T14:22:47;-1.70;99.90
19888;DHT22;10106;51.332;12.336;2022-12-11T14:25:22;-1.90;99.90
19888;DHT22;10106;51.332;12.336;2022-12-11T14:27:51;-1.90;99.90
19888;DHT22;10106;51.332;12.336;2022-12-11T14:32:57;-1.90;99.90
19888;DHT22;10106;51.332;12.336;2022-12-11T14:35:28;-1.90;99.90
19888;DHT22;10106;51.332;12.336;2022-12-11T14:37:56;-1.90;99.90
19888;DHT22;10106;51.332;12.336;2022-12-11T14:40:37;-2.00;99.90
19888;DHT22;10106;51.332;12.336;2022-12-11T14:43:14;-2.00;99.90
19888;DHT22;10106;51.332;12.336;2022-12-11T14:45:46;-2.00;99.90
19888;DHT22;10106;51.332;12.336;2022-12-11T14:48:18;-2.00;99.90
19888;DHT22;10106;51.332;12.336;2022-12-11T14:50:50;-2.00;99.90
19888;DHT22;10106;51.332;12.336;2022-12-11T14:53:18;-2.00;99.90
19888;DHT22;10106;51.332;12.336;2022-12-11T14:55:46;-1.90;99.90
19888;DHT22;10106;51.332;12.336;2022-12-11T15:00:40;-1.90;99.90
19888;DHT22;10106;51.332;12.336;2022-12-11T15:03:21;-1.90;99.90
19888;DHT22;10106;51.332;12.336;2022-12-11T15:05:55;-1.90;99.90
19888;DHT22;10106;51.332;12.336;2022-12-11T15:08:24;-1.90;99.90
19888;DHT22;10106;51.332;12.336;2022-12-11T15:13:33;-1.90;99.90
19888;DHT22;10106;51.332;12.336;2022-12-11T15:16:00;-1.90;99.90
19888;DHT22;10106;51.332;12.336;2022-12-11T15:18:29;-1.90;99.90
19888;DHT22;10106;51.332;12.336;2022-12-11T15:20:59;-1.90;99.90
19888;DHT22;10106;51.332;12.336;2022-12-11T15:23:28;-1.90;99.90
19888;DHT22;10106;51.332;12.336;2022-12-11T15:25:59;-1.90;99.90
19888;DHT22;10106;51.332;12.336;2022-12-11T15:28:36;-1.80;99.90
19888;DHT22;10106;51.332;12.336;2022-12-11T15:31:20;-1.90;99.90
19888;DHT22;10106;51.332;12.336;2022-12-11T15:33:47;-1.90;99.90
19888;DHT22;10106;51.332;12.336;2022-12-11T15:38:55;-1.90;99.90
19888;DHT22;10106;51.332;12.336;2022-12-11T15:41:22;-2.00;99.90
19888;DHT22;10106;51.332;12.336;2022-12-11T15:43:53;-2.00;99.90
19888;DHT22;10106;51.332;12.336;2022-12-11T15:46:20;-2.00;99.90
19888;DHT22;10106;51.332;12.336;2022-12-11T15:48:49;-2.00;99.90
19888;DHT22;10106;51.332;12.336;2022-12-11T15:51:16;-2.00;99.90
19888;DHT22;10106;51.332;12.336;2022-12-11T15:53:41;-2.00;99.90
19888;DHT22;10106;51.332;12.336;2022-12-11T15:56:16;-2.10;99.90
19888;DHT22;10106;51.332;12.336;2022-12-11T15:58:49;-2.20;99.90
19888;DHT22;10106;51.332;12.336;2022-12-11T16:01:15;-2.20;99.90
19888;DHT22;10106;51.332;12.336;2022-12-11T16:03:41;-2.20;99.90
19888;DHT22;10106;51.332;12.336;2022-12-11T16:06:11;-2.10;99.90
19888;DHT22;10106;51.332;12.336;2022-12-11T16:08:37;-2.10;99.90
19888;DHT22;10106;51.332;12.336;2022-12-11T16:11:03;-2.10;99.90
19888;DHT22;10106;51.332;12.336;2022-12-11T16:13:29;-2.20;99.90
19888;DHT22;10106;51.332;12.336;2022-12-11T16:15:55;-2.20;99.90
19888;DHT22;10106;51.332;12.336;2022-12-11T16:18:23;-2.20;99.90
19888;DHT22;10106;51.332;12.336;2022-12-11T16:20:50;-2.30;99.90
19888;DHT22;10106;51.332;12.336;2022-12-11T16:23:19;-2.30;99.90
19888;DHT22;10106;51.332;12.336;2022-12-11T16:25:45;-2.30;99.90
19888;DHT22;10106;51.332;12.336;2022-12-11T16:28:14;-2.40;99.90
19888;DHT22;10106;51.332;12.336;2022-12-11T16:30:41;-2.50;99.90
19888;DHT22;10106;51.332;12.336;2022-12-11T16:33:08;-2.50;99.90
19888;DHT22;10106;51.332;12.336;2022-12-11T16:35:34;-2.50;99.90
19888;DHT22;10106;51.332;12.336;2022-12-11T16:38:00;-2.50;99.90
19888;DHT22;10106;51.332;12.336;2022-12-11T16:40:28;-2.50;99.90
19888;DHT22;10106;51.332;12.336;2022-12-11T16:43:05;-2.50;99.90
19888;DHT22;10106;51.332;12.336;2022-12-11T16:45:31;-2.40;99.90
19888;DHT22;10106;51.332;12.336;2022-12-11T16:47:57;-2.40;99.90
19888;DHT22;10106;51.332;12.336;2022-12-11T16:50:23;-2.30;99.90
19888;DHT22;10106;51.332;12.336;2022-12-11T16:52:55;-2.30;99.90
19888;DHT22;10106;51.332;12.336;2022-12-11T16:55:24;-2.30;99.90
19888;DHT22;10106;51.332;12.336;2022-12-11T16:57:53;-2.20;99.90
19888;DHT22;10106;51.332;12.336;2022-12-11T17:00:22;-2.20;99.90
19888;DHT22;10106;51.332;12.336;2022-12-11T17:02:48;-2.20;99.90
19888;DHT22;10106;51.332;12.336;2022-12-11T17:05:14;-2.20;99.90
19888;DHT22;10106;51.332;12.336;2022-12-11T17:07:39;-2.30;99.90
19888;DHT22;10106;51.332;12.336;2022-12-11T17:10:05;-2.40;99.90
19888;DHT22;10106;51.332;12.336;2022-12-11T17:12:37;-2.50;99.90
19888;DHT22;10106;51.332;12.336;2022-12-11T17:15:04;-2.50;99.90
19888;DHT22;10106;51.332;12.336;2022-12-11T17:17:30;-2.50;99.90
19888;DHT22;10106;51.332;12.336;2022-12-11T17:19:58;-2.40;99.90
19888;DHT22;10106;51.332;12.336;2022-12-11T17:22:24;-2.40;99.90
19888;DHT22;10106;51.332;12.336;2022-12-11T17:24:50;-2.30;99.90
19888;DHT22;10106;51.332;12.336;2022-12-11T17:27:16;-2.30;99.90
19888;DHT22;10106;51.332;12.336;2022-12-11T17:29:41;-2.30;99.90
19888;DHT22;10106;51.332;12.336;2022-12-11T17:32:16;-2.20;99.90
19888;DHT22;10106;51.332;12.336;2022-12-11T17:34:43;-2.20;99.90
19888;DHT22;10106;51.332;12.336;2022-12-11T17:37:09;-2.20;99.90
19888;DHT22;10106;51.332;12.336;2022-12-11T17:39:36;-2.20;99.90
19888;DHT22;10106;51.332;12.336;2022-12-11T17:42:05;-2.20;99.90
19888;DHT22;10106;51.332;12.336;2022-12-11T17:44:33;-2.20;99.90
19888;DHT22;10106;51.332;12.336;2022-12-11T17:47:02;-2.30;99.90